Patchogue, NY (11772)

10:10 AM EDT on September 30, 2014 (GMT -0400)
RAWS LONG ISLAND NY US | Change Station
CLOSE
Current Station
Personal Weather Station
Location: Patchogue, NY
Elevation: 24 ft
Nearby Weather Stations

Elev 24 ft 40.78 °N, 72.90 °W | Updated 44 minutes ago

Rain
Rain
63 °F
Feels Like 63 °F
N
2
Wind Variable Wind from NE
Gusts 4.0 mph

Today
High -- | Low -- °F
--% Chance of Precip.
Yesterday
High -- | Low -- °F
Precip. -- in
6:47 AM 6:35 PM
Waxing Crescent, 37% visible
Pressure 29.99 in
Visibility 8.0 miles
Clouds Overcast 700 ft
Dew Point 62 °F
Humidity 98%
Rainfall 0.06 in
Snow Depth Not available.
UV 1 out of 12
Pollen 1.50 out of 12
Ozone Good
Flu Activity Not available.
METAR KHWV 301356Z AUTO VRB03KT 8SM -RA OVC007 17/17 A2999 RMK AO2 CIG 004V010 SLP156 P0002 T01720167 TSNO $

More Conditions Fewer Conditions

Pressure 29.99 in
Visibility 8.0 miles
Clouds Overcast 700 ft
Dew Point 62 °F
Humidity 98%
Rainfall 0.06 in
Snow Depth Not available.
UV 1 out of 12
Pollen 1.50 out of 12
Ozone Good
Flu Activity Not available.
METAR KHWV 301356Z AUTO VRB03KT 8SM -RA OVC007 17/17 A2999 RMK AO2 CIG 004V010 SLP156 P0002 T01720167 TSNO $

More Conditions Fewer Conditions

10-Day Weather Forecast

Almanac

Astronomy

Sep. 30, 2014 Rise Set
Actual Time 6:47 AM EDT 6:35 PM EDT
Civil Twilight 6:19 AM EDT 7:02 PM EDT
Nautical Twilight 5:47 AM EDT 7:34 PM EDT
Astronomical Twilight 5:15 AM EDT 8:06 PM EDT
Moon 12:54 PM EDT 11:01 PM EDT
Length of Visible Light 12h 42m
Length of Day
11h 48m
Tomorrow will be 2m 41s shorter.
Waxing Crescent, 37% of the Moon is Illuminated
Today
Waxing Crescent
Oct 1
First Quarter
Oct 8
Full
Oct 15
Last Quarter
Oct 23
New

Today's Extremes

State Highs State Lows

Community

WunderPhotos

Upload Photos

1,757,643 photos uploaded!

Nearby

Air Quality

  Air Quality AQ Index Pollutant
Yesterday Good
OZONE
Current Good
OZONE
Tuesday Moderate
PM2.5
Tuesday Good
OZONE

Snow Depth

Station Depth Elevation
No new snow has been reported.

Earthquake Activity

City Distance Mag. Time & Date
No recent earthquake activity has been reported nearby.
Minimum magnitude displayed is 2.5.

Coastal Water Temperatures

Place Temperature
No Stations Reporting

Nearby Weather Stations